KABE/ABE METAR and TAF weather

Enter ICAO airport designator
Station Type Date Time Source
KABE METAR 2019/12/12 11:51 UTC NOAA

KABE 121151Z 32003KT 10SM CLR M05/M11 A3068 RMK AO2 SLP395 T10501111 11022 21056 52021


Station Type Date Time Source
KABE Decoded METAR 2019/12/12 11:51 UTC NOAA

LEHIGH VALLEY INTERNATIONAL AIRPORT, PA, United States (KABE) 40-39N 075-27W 114M
Dec 12, 2019 - 06:51 AM EST / 2019.12.12 1151 UTC
Wind: from the NW (320 degrees) at 3 MPH (3 KT):0
Visibility: 10 mile(s):0
Sky conditions: clear
Temperature: 23.0 F (-5.0 C)
Dew Point: 12.0 F (-11.1 C)
Relative Humidity: 62%
Pressure (altimeter): 30.68 in. Hg (1038 hPa)
Pressure tendency: 0.06 inches (2.1 hPa) higher than three hours ago
ob: KABE 121151Z 32003KT 10SM CLR M05/M11 A3068 RMK AO2 SLP395 T10501111 11022 21056 52021
cycle: 12

Station Type Date Time Source
KABE TAF 2019/12/12 12:30 UTC NOAA

TAF KABE 121129Z 1212/1312 VRB03KT P6SM SKC
FM130700 07004KT P6SM OVC035

Example: see airport list